createdAt,value
2023-01-31T00:00:29.473Z,96847.91
2023-01-31T00:01:33.542Z,96847.91
2023-01-31T00:02:40.717Z,96851.31
2023-01-31T00:03:43.891Z,96847.91
2023-01-31T00:04:49.253Z,96849.63
2023-01-31T00:05:51.265Z,96840.25
2023-01-31T00:06:55.855Z,96847.91
2023-01-31T00:07:57.901Z,96851.31
2023-01-31T00:09:04.279Z,96847.91
2023-01-31T00:10:06.987Z,96837.69
2023-01-31T00:11:11.775Z,96834.28
2023-01-31T00:12:13.911Z,96839.38
2023-01-31T00:13:18.472Z,96839.38
2023-01-31T00:14:21.229Z,96835.97
2023-01-31T00:15:25.853Z,96832.59
2023-01-31T00:16:28.213Z,96834.28
2023-01-31T00:17:32.799Z,96831.72
2023-01-31T00:18:39.179Z,96835.13
2023-01-31T00:19:43.914Z,96830.84
2023-01-31T00:20:45.902Z,96839.38
2023-01-31T00:21:50.444Z,96837.69
2023-01-31T00:22:52.417Z,96842.81
2023-01-31T00:23:58.315Z,96839.38
2023-01-31T00:25:00.282Z,96835.97
2023-01-31T00:26:13.210Z,96840.25
2023-01-31T00:27:15.243Z,96839.38
2023-01-31T00:28:19.787Z,96827.47
2023-01-31T00:29:21.981Z,96839.38
2023-01-31T00:30:26.644Z,96828.28
2023-01-31T00:31:30.670Z,96829.16
2023-01-31T00:32:35.775Z,96824.03
2023-01-31T00:33:43.969Z,96836.81
2023-01-31T00:34:48.556Z,96834.25
2023-01-31T00:35:50.565Z,96839.38
2023-01-31T00:36:55.177Z,96839.34
2023-01-31T00:37:57.194Z,96834.25
2023-01-31T00:39:04.094Z,96829.16
2023-01-31T00:40:07.694Z,96827.44
2023-01-31T00:41:12.287Z,96830.88
2023-01-31T00:42:14.309Z,96832.56
2023-01-31T00:43:18.879Z,96827.44
2023-01-31T00:44:20.908Z,96835.97
2023-01-31T00:45:25.493Z,96830.88
2023-01-31T00:46:28.251Z,96831.72
2023-01-31T00:47:32.920Z,96834.25
2023-01-31T00:48:35.404Z,96830.84
2023-01-31T00:49:42.585Z,96838.53
2023-01-31T00:50:44.567Z,96834.28
2023-01-31T00:51:49.743Z,96840.22
2023-01-31T00:52:51.796Z,96830.03
2023-01-31T00:53:57.067Z,96835.13
2023-01-31T00:54:59.133Z,96840.22
2023-01-31T00:56:07.328Z,96832.56
2023-01-31T00:57:09.285Z,96823.19
2023-01-31T00:58:13.919Z,96830.00
2023-01-31T00:59:15.962Z,96836.81
2023-01-31T01:00:21.533Z,96835.97
2023-01-31T01:01:26.297Z,96828.31
2023-01-31T01:02:30.880Z,96831.72
2023-01-31T01:03:33.132Z,96830.00
2023-01-31T01:04:37.918Z,96830.88
2023-01-31T01:05:42.483Z,96830.84
2023-01-31T01:06:47.718Z,96835.97
2023-01-31T01:07:49.693Z,96835.13
2023-01-31T01:08:55.109Z,96834.25
2023-01-31T01:09:58.287Z,96822.34
2023-01-31T01:11:07.918Z,96825.75
2023-01-31T01:12:09.874Z,96831.72
2023-01-31T01:13:14.553Z,96816.41
2023-01-31T01:14:16.610Z,96826.63
2023-01-31T01:15:21.849Z,96824.91
2023-01-31T01:16:26.375Z,96829.19
2023-01-31T01:17:31.412Z,96828.34
2023-01-31T01:18:35.461Z,96833.44
2023-01-31T01:19:40.118Z,96825.78
2023-01-31T01:20:44.706Z,96827.47
2023-01-31T01:21:49.306Z,96829.16
2023-01-31T01:22:51.282Z,96824.94
2023-01-31T01:23:58.420Z,96822.38
2023-01-31T01:25:00.492Z,96827.47
2023-01-31T01:26:05.374Z,96827.47
2023-01-31T01:27:07.406Z,96834.28
2023-01-31T01:28:12.641Z,96828.31
2023-01-31T01:29:14.886Z,96834.28
2023-01-31T01:30:20.384Z,96832.56
2023-01-31T01:31:23.004Z,96835.16
2023-01-31T01:32:28.050Z,96843.66
2023-01-31T01:33:31.761Z,96845.34
2023-01-31T01:34:37.726Z,96847.06
2023-01-31T01:35:39.717Z,96850.44
2023-01-31T01:36:46.870Z,96850.47
2023-01-31T01:37:52.488Z,96851.31
2023-01-31T01:38:55.196Z,96847.03
2023-01-31T01:39:59.871Z,96851.31
2023-01-31T01:41:01.896Z,96843.63
2023-01-31T01:42:08.332Z,96847.91
2023-01-31T01:43:11.919Z,96843.63
2023-01-31T01:44:48.188Z,96841.09
2023-01-31T01:45:50.233Z,96844.50
2023-01-31T01:46:55.320Z,96852.16
2023-01-31T01:48:03.635Z,96841.97
2023-01-31T01:49:16.489Z,96850.44
2023-01-31T01:50:26.538Z,96835.97
2023-01-31T01:51:32.410Z,96844.50
2023-01-31T01:52:44.403Z,96845.34
2023-01-31T01:53:50.436Z,96849.63
2023-01-31T01:54:59.136Z,96860.66
2023-01-31T01:56:06.415Z,96861.50
2023-01-31T01:57:13.364Z,96862.34
2023-01-31T01:58:23.003Z,96860.69
2023-01-31T01:59:29.136Z,96859.81
2023-01-31T02:00:36.155Z,96842.78
2023-01-31T02:01:39.391Z,96860.66
2023-01-31T02:02:44.486Z,96853.88
2023-01-31T02:03:49.129Z,96857.28
2023-01-31T02:04:55.393Z,96862.34
2023-01-31T02:06:01.027Z,96868.31
2023-01-31T02:07:06.642Z,96862.34
2023-01-31T02:08:11.951Z,96873.41
2023-01-31T02:09:34.672Z,96864.91
2023-01-31T02:10:42.074Z,96866.63
2023-01-31T02:11:46.828Z,96875.97
2023-01-31T02:12:49.068Z,96873.41
2023-01-31T02:14:00.723Z,96873.41
2023-01-31T02:15:02.748Z,96871.72
2023-01-31T02:16:07.987Z,96874.28
2023-01-31T02:17:15.655Z,96879.41
2023-01-31T02:18:22.219Z,96876.81
2023-01-31T02:19:32.457Z,96875.97
2023-01-31T02:21:08.130Z,96878.56
2023-01-31T02:22:16.932Z,96874.28
2023-01-31T02:23:51.531Z,96875.13
2023-01-31T02:25:15.218Z,96865.78
2023-01-31T02:26:48.388Z,96862.38
2023-01-31T02:28:27.984Z,96873.44
2023-01-31T02:29:56.811Z,96868.34
2023-01-31T02:31:33.555Z,96870.03
2023-01-31T02:32:56.495Z,96881.09
2023-01-31T02:34:04.304Z,96877.69
2023-01-31T02:35:15.896Z,96874.28
2023-01-31T02:36:25.661Z,96874.28
2023-01-31T02:37:47.530Z,96875.16
2023-01-31T02:39:02.539Z,96875.97
2023-01-31T02:40:14.149Z,96877.69
2023-01-31T02:41:19.256Z,96871.75
2023-01-31T02:42:36.026Z,96875.13
2023-01-31T02:44:00.314Z,96870.03
2023-01-31T02:45:09.839Z,96872.59
2023-01-31T02:46:19.295Z,96871.72
2023-01-31T02:47:33.817Z,96873.44
2023-01-31T02:48:49.379Z,96875.97
2023-01-31T02:49:57.027Z,96879.38
2023-01-31T02:51:07.841Z,96870.88
2023-01-31T02:52:19.237Z,96869.19
2023-01-31T02:53:28.040Z,96870.91
2023-01-31T02:54:51.762Z,96873.44
2023-01-31T02:56:13.560Z,96877.69
2023-01-31T02:57:17.151Z,96877.69
2023-01-31T02:58:24.238Z,96878.53
2023-01-31T02:59:28.444Z,96885.34
2023-01-31T03:00:36.732Z,96888.75
2023-01-31T03:01:43.816Z,96887.91
2023-01-31T03:02:48.579Z,96889.59
2023-01-31T03:03:56.035Z,96883.63
2023-01-31T03:04:58.069Z,96883.63
2023-01-31T03:06:33.707Z,96887.91
2023-01-31T03:07:39.070Z,96887.06
2023-01-31T03:08:47.441Z,96886.22
2023-01-31T03:10:00.739Z,96893.00
2023-01-31T03:11:08.330Z,96896.41
2023-01-31T03:12:33.426Z,96895.56
2023-01-31T03:13:50.585Z,96886.22
2023-01-31T03:15:06.928Z,96887.91
2023-01-31T03:16:33.772Z,96894.69
2023-01-31T03:17:52.746Z,96884.50
2023-01-31T03:19:06.153Z,96885.34
2023-01-31T03:20:15.866Z,96892.16
2023-01-31T03:21:24.376Z,96892.16
2023-01-31T03:22:33.006Z,96885.34
2023-01-31T03:23:38.542Z,96893.88
2023-01-31T03:24:45.344Z,96884.50
2023-01-31T03:25:49.805Z,96889.59
2023-01-31T03:26:55.039Z,96887.03
2023-01-31T03:28:01.274Z,96893.88
2023-01-31T03:29:09.369Z,96893.88
2023-01-31T03:30:17.525Z,96893.00
2023-01-31T03:31:26.346Z,96897.25
2023-01-31T03:32:33.706Z,96898.97
2023-01-31T03:33:40.866Z,96897.25
2023-01-31T03:34:45.734Z,96900.66
2023-01-31T03:35:56.008Z,96898.09
2023-01-31T03:37:05.220Z,96904.91
2023-01-31T03:38:17.819Z,96911.72
2023-01-31T03:39:29.381Z,96912.59
2023-01-31T03:40:35.900Z,96905.75
2023-01-31T03:41:48.380Z,96917.69
2023-01-31T03:42:58.094Z,96906.63
2023-01-31T03:44:03.792Z,96912.59
2023-01-31T03:45:14.726Z,96909.19
2023-01-31T03:46:22.834Z,96915.97
2023-01-31T03:47:30.510Z,96918.53
2023-01-31T03:48:37.857Z,96910.03
2023-01-31T03:49:45.683Z,96912.59
2023-01-31T03:50:54.003Z,96910.88
2023-01-31T03:52:04.254Z,96910.88
2023-01-31T03:53:13.867Z,96910.03
2023-01-31T03:54:21.332Z,96910.03
2023-01-31T03:55:33.945Z,96907.47
2023-01-31T03:56:41.448Z,96909.19
2023-01-31T03:57:48.861Z,96904.94
2023-01-31T03:58:54.834Z,96906.63
2023-01-31T04:00:03.451Z,96909.19
2023-01-31T04:01:09.899Z,96910.03
2023-01-31T04:02:18.655Z,96911.72
2023-01-31T04:03:28.149Z,96920.25
2023-01-31T04:04:37.916Z,96920.22
2023-01-31T04:05:40.990Z,96918.56
2023-01-31T04:06:48.537Z,96916.00
2023-01-31T04:07:50.923Z,96919.38
2023-01-31T04:08:55.504Z,96926.22
2023-01-31T04:09:57.915Z,96921.09
2023-01-31T04:11:03.316Z,96924.50
2023-01-31T04:12:06.348Z,96927.91
2023-01-31T04:13:11.434Z,96922.78
2023-01-31T04:14:13.732Z,96930.47
2023-01-31T04:15:18.983Z,96928.78
2023-01-31T04:16:21.186Z,96929.63
2023-01-31T04:17:25.748Z,96932.19
2023-01-31T04:18:27.729Z,96930.47
2023-01-31T04:19:32.314Z,96931.31
2023-01-31T04:20:34.688Z,96932.19
2023-01-31T04:21:39.324Z,96927.91
2023-01-31T04:22:43.951Z,96929.63
2023-01-31T04:23:48.537Z,96931.31
2023-01-31T04:24:53.089Z,96926.22
2023-01-31T04:25:55.265Z,96926.22
2023-01-31T04:27:00.163Z,96928.75
2023-01-31T04:28:02.168Z,96922.78
2023-01-31T04:29:07.528Z,96927.06
2023-01-31T04:30:11.171Z,96927.03
2023-01-31T04:31:15.947Z,96930.44
2023-01-31T04:32:18.008Z,96926.19
2023-01-31T04:33:22.791Z,96933.84
2023-01-31T04:34:24.915Z,96927.91
2023-01-31T04:35:29.836Z,96927.88
2023-01-31T04:36:32.079Z,96924.50
2023-01-31T04:37:36.815Z,96926.19
2023-01-31T04:38:44.013Z,96920.25
2023-01-31T04:39:46.037Z,96927.91
2023-01-31T04:40:50.641Z,96930.47
2023-01-31T04:41:52.605Z,96916.00
2023-01-31T04:42:57.199Z,96927.03
2023-01-31T04:43:59.222Z,96929.59
2023-01-31T04:45:04.022Z,96921.09
2023-01-31T04:46:06.235Z,96919.38
2023-01-31T04:47:11.114Z,96931.28
2023-01-31T04:48:13.394Z,96941.47
2023-01-31T04:49:18.334Z,96931.28
2023-01-31T04:50:20.454Z,96935.50
2023-01-31T04:51:25.005Z,96947.41
2023-01-31T04:52:26.970Z,96944.03
2023-01-31T04:53:31.785Z,96940.63
2023-01-31T04:54:36.843Z,96944.88
2023-01-31T04:55:41.448Z,96948.25
2023-01-31T04:56:43.436Z,96950.84
2023-01-31T04:57:48.050Z,96942.31
2023-01-31T04:58:52.613Z,96932.97
2023-01-31T04:59:54.568Z,96947.41
2023-01-31T05:00:59.289Z,96942.34
2023-01-31T05:02:01.311Z,96937.22
2023-01-31T05:03:06.231Z,96938.94
2023-01-31T05:04:08.415Z,96933.84
2023-01-31T05:05:14.447Z,96936.38
2023-01-31T05:06:16.714Z,96925.31
2023-01-31T05:07:21.258Z,96927.84
2023-01-31T05:08:23.293Z,96932.97
2023-01-31T05:09:28.021Z,96933.81
2023-01-31T05:10:34.470Z,96935.50
2023-01-31T05:11:39.021Z,96932.09
2023-01-31T05:12:40.991Z,96930.41
2023-01-31T05:13:45.637Z,96928.69
2023-01-31T05:14:47.743Z,96936.31
2023-01-31T05:15:52.392Z,96936.31
2023-01-31T05:16:54.343Z,96928.66
2023-01-31T05:18:03.437Z,96928.63
2023-01-31T05:19:05.491Z,96929.50
2023-01-31T05:20:11.543Z,96932.03
2023-01-31T05:21:13.681Z,96935.44
2023-01-31T05:22:18.469Z,96931.22
2023-01-31T05:23:20.618Z,96938.00
2023-01-31T05:24:25.287Z,96932.91
2023-01-31T05:25:27.415Z,96932.91
2023-01-31T05:26:34.643Z,96939.72
2023-01-31T05:27:36.682Z,96935.47
2023-01-31T05:28:41.978Z,96937.16
2023-01-31T05:29:44.476Z,96932.03
2023-01-31T05:30:49.312Z,96935.47
2023-01-31T05:31:52.318Z,96927.81
2023-01-31T05:32:57.041Z,96926.97
2023-01-31T05:33:59.046Z,96938.00
2023-01-31T05:35:03.740Z,96943.97
2023-01-31T05:36:06.348Z,96938.91
2023-01-31T05:37:11.075Z,96940.56
2023-01-31T05:38:16.082Z,96941.44
2023-01-31T05:39:18.191Z,96939.75
2023-01-31T05:40:23.448Z,96938.03
2023-01-31T05:41:25.427Z,96943.13
2023-01-31T05:42:32.676Z,96937.19
2023-01-31T05:43:36.358Z,96938.91
2023-01-31T05:44:41.693Z,96938.06
2023-01-31T05:45:43.792Z,96938.03
2023-01-31T05:46:48.770Z,96935.50
2023-01-31T05:47:50.843Z,96941.47
2023-01-31T05:48:55.455Z,96938.03
2023-01-31T05:49:57.442Z,96940.59
2023-01-31T05:51:02.165Z,96938.03
2023-01-31T05:52:04.366Z,96941.44
2023-01-31T05:53:09.412Z,96938.91
2023-01-31T05:54:12.750Z,96949.97
2023-01-31T05:55:17.858Z,96950.84
2023-01-31T05:56:20.032Z,96950.81
2023-01-31T05:57:24.604Z,96949.97
2023-01-31T05:58:29.218Z,96947.41
2023-01-31T05:59:33.801Z,96949.97
2023-01-31T06:00:36.617Z,96953.34
2023-01-31T06:01:41.133Z,96953.34
2023-01-31T06:02:43.200Z,96954.22
2023-01-31T06:03:47.823Z,96957.59
2023-01-31T06:04:50.084Z,96953.34
2023-01-31T06:05:54.692Z,96949.06
2023-01-31T06:06:56.710Z,96948.22
2023-01-31T06:08:01.327Z,96946.47
2023-01-31T06:09:03.383Z,96950.72
2023-01-31T06:10:10.285Z,96948.19
2023-01-31T06:11:13.000Z,96946.44
2023-01-31T06:12:17.814Z,96941.34
2023-01-31T06:13:19.804Z,96955.78
2023-01-31T06:14:27.226Z,96951.53
2023-01-31T06:15:32.207Z,96955.75
2023-01-31T06:16:34.272Z,96951.50
2023-01-31T06:17:38.945Z,96953.19
2023-01-31T06:18:40.959Z,96951.50
2023-01-31T06:19:45.624Z,96952.34
2023-01-31T06:20:47.680Z,96951.47
2023-01-31T06:21:52.387Z,96948.88
2023-01-31T06:22:54.390Z,96948.03
2023-01-31T06:23:59.605Z,96957.38
2023-01-31T06:25:01.690Z,96951.38
2023-01-31T06:26:06.393Z,96951.34
2023-01-31T06:27:13.245Z,96951.31
2023-01-31T06:28:18.040Z,96959.75
2023-01-31T06:29:19.996Z,96960.56
2023-01-31T06:30:27.289Z,96961.41
2023-01-31T06:31:29.550Z,96956.28
2023-01-31T06:32:35.086Z,96953.69
2023-01-31T06:33:45.882Z,96957.91
2023-01-31T06:34:52.123Z,96958.69
2023-01-31T06:35:59.488Z,96962.94
2023-01-31T06:37:04.066Z,96965.50
2023-01-31T06:38:06.682Z,96959.53
2023-01-31T06:39:11.319Z,96956.16
2023-01-31T06:40:16.013Z,96957.03
2023-01-31T06:41:18.486Z,96955.31
2023-01-31T06:42:23.101Z,96958.75
2023-01-31T06:43:25.234Z,96957.84
2023-01-31T06:44:30.351Z,96956.09
2023-01-31T06:45:35.117Z,96957.72
2023-01-31T06:46:39.733Z,96962.75
2023-01-31T06:47:44.311Z,96959.25
2023-01-31T06:48:47.248Z,96958.38
2023-01-31T06:49:51.795Z,96960.00
2023-01-31T06:50:54.817Z,96968.47
2023-01-31T06:51:59.513Z,96963.44
2023-01-31T06:53:01.518Z,96955.84
2023-01-31T06:54:06.435Z,96959.22
2023-01-31T06:55:09.874Z,96969.41
2023-01-31T06:56:14.452Z,96962.69
2023-01-31T06:57:16.470Z,96962.69
2023-01-31T06:58:21.127Z,96961.03
2023-01-31T06:59:23.234Z,96958.44
2023-01-31T07:00:29.252Z,96962.72
2023-01-31T07:01:33.860Z,96957.59
2023-01-31T07:02:38.407Z,96957.59
2023-01-31T07:03:40.575Z,96955.81
2023-01-31T07:04:45.320Z,96961.66
2023-01-31T07:05:48.817Z,96960.78
2023-01-31T07:06:54.009Z,96959.06
2023-01-31T07:07:56.229Z,96963.38
2023-01-31T07:09:00.868Z,96952.34
2023-01-31T07:10:02.927Z,96948.97
2023-01-31T07:11:08.664Z,96961.72
2023-01-31T07:12:14.470Z,96955.78
2023-01-31T07:13:20.048Z,96954.13
2023-01-31T07:14:22.104Z,96959.31
2023-01-31T07:15:26.767Z,96949.16
2023-01-31T07:16:28.835Z,96957.72
2023-01-31T07:17:36.074Z,96962.81
2023-01-31T07:18:40.701Z,96959.47
2023-01-31T07:19:42.740Z,96962.88
2023-01-31T07:20:47.364Z,96961.25
2023-01-31T07:21:49.441Z,96955.31
2023-01-31T07:22:57.508Z,96963.84
2023-01-31T07:24:02.179Z,96960.47
2023-01-31T07:25:07.551Z,96956.22
2023-01-31T07:26:09.540Z,96957.06
2023-01-31T07:27:15.911Z,96962.19
2023-01-31T07:28:17.980Z,96958.78
2023-01-31T07:29:22.536Z,96957.97
2023-01-31T07:30:24.608Z,96960.47
2023-01-31T07:32:48.849Z,96955.38
2023-01-31T07:33:53.351Z,96957.13
2023-01-31T07:34:55.329Z,96963.94
2023-01-31T07:35:59.949Z,96960.56
2023-01-31T07:37:02.006Z,96963.09
2023-01-31T07:38:06.550Z,96964.81
2023-01-31T07:39:11.792Z,96961.44
2023-01-31T07:40:15.514Z,96961.44
2023-01-31T07:41:20.209Z,96963.13
2023-01-31T07:42:22.228Z,96964.84
2023-01-31T07:43:26.815Z,96959.78
2023-01-31T07:44:31.420Z,96964.06
2023-01-31T07:45:36.437Z,96966.63
2023-01-31T07:46:42.592Z,96966.66
2023-01-31T07:47:49.931Z,96959.88
2023-01-31T07:48:54.557Z,96963.28
2023-01-31T07:49:56.487Z,96956.50
2023-01-31T07:51:03.238Z,96956.53
2023-01-31T07:52:08.610Z,96970.97
2023-01-31T07:53:11.330Z,96959.09
2023-01-31T07:54:15.964Z,96963.34
2023-01-31T07:55:18.376Z,96964.25
2023-01-31T07:56:24.542Z,96963.41
2023-01-31T07:57:26.517Z,96965.13
2023-01-31T07:58:31.163Z,96960.06
2023-01-31T07:59:33.271Z,96959.22
2023-01-31T08:00:50.338Z,96960.94
2023-01-31T08:02:07.331Z,96958.44
2023-01-31T08:03:36.334Z,96956.75
2023-01-31T08:04:41.003Z,96956.00
2023-01-31T08:05:46.495Z,96956.00
2023-01-31T08:06:53.058Z,96955.13
2023-01-31T08:08:10.500Z,96950.88
2023-01-31T08:09:15.973Z,96950.00
2023-01-31T08:10:21.195Z,96942.31
2023-01-31T08:11:26.253Z,96943.16
2023-01-31T08:12:28.216Z,96941.44
2023-01-31T08:13:32.940Z,96955.94
2023-01-31T08:14:34.997Z,96956.84
2023-01-31T08:15:39.598Z,96950.84
2023-01-31T08:16:44.292Z,96949.19
2023-01-31T08:17:46.369Z,96955.09
2023-01-31T08:18:54.782Z,96958.53
2023-01-31T08:19:56.801Z,96943.22
2023-01-31T08:21:01.851Z,96946.59
2023-01-31T08:22:07.348Z,96947.44
2023-01-31T08:23:09.422Z,96947.47
2023-01-31T08:24:14.455Z,96946.59
2023-01-31T08:25:18.926Z,96949.94
2023-01-31T08:26:25.230Z,96943.97
2023-01-31T08:27:27.263Z,96952.50
2023-01-31T08:28:32.044Z,96949.91
2023-01-31T08:29:36.793Z,96955.03
2023-01-31T08:30:41.367Z,96953.28
2023-01-31T08:31:46.276Z,96962.63
2023-01-31T08:32:50.884Z,96960.00
2023-01-31T08:33:56.140Z,96961.72
2023-01-31T08:35:00.675Z,96956.50
2023-01-31T08:36:12.529Z,96971.84
2023-01-31T08:37:18.538Z,96960.72
2023-01-31T08:38:20.823Z,96953.91
2023-01-31T08:39:25.476Z,96952.19
2023-01-31T08:40:27.471Z,96954.78
2023-01-31T08:41:33.131Z,96953.94
2023-01-31T08:42:35.164Z,96954.75
2023-01-31T08:43:54.401Z,96958.16
2023-01-31T08:45:01.188Z,96959.06
2023-01-31T08:46:03.149Z,96961.66
2023-01-31T08:47:07.949Z,96955.63
2023-01-31T08:48:09.932Z,96970.31
2023-01-31T08:49:17.189Z,96967.78
2023-01-31T08:50:27.669Z,96959.25
2023-01-31T08:51:33.104Z,96957.56
2023-01-31T08:52:35.650Z,96957.53
2023-01-31T08:53:40.423Z,96960.91
2023-01-31T08:54:45.028Z,96954.84
2023-01-31T08:55:49.614Z,96950.56
2023-01-31T08:56:54.240Z,96958.28
2023-01-31T08:58:00.025Z,96954.81
2023-01-31T08:59:04.805Z,96956.50
2023-01-31T09:00:08.695Z,96955.66
2023-01-31T09:01:14.839Z,96959.84
2023-01-31T09:02:19.985Z,96959.03
2023-01-31T09:03:24.669Z,96957.25
2023-01-31T09:04:32.393Z,96968.44
2023-01-31T09:05:37.055Z,96964.91
2023-01-31T09:06:39.067Z,96964.91
2023-01-31T09:07:43.742Z,96959.72
2023-01-31T09:08:48.678Z,96956.41
2023-01-31T09:09:53.198Z,96967.63
2023-01-31T09:10:56.051Z,96975.31
2023-01-31T09:12:00.626Z,96969.25
2023-01-31T09:13:02.744Z,96969.16
2023-01-31T09:14:07.321Z,96964.78
2023-01-31T09:15:10.175Z,96969.78
2023-01-31T09:16:16.062Z,96967.25
2023-01-31T09:17:18.181Z,96957.00
2023-01-31T09:18:22.721Z,96963.97
2023-01-31T09:19:27.280Z,96969.91
2023-01-31T09:20:34.418Z,96963.88
2023-01-31T09:21:36.449Z,96968.25
2023-01-31T09:22:41.201Z,96968.31
2023-01-31T09:23:45.961Z,96969.00
2023-01-31T09:24:50.562Z,96964.00
2023-01-31T09:25:56.647Z,96965.56
2023-01-31T09:27:01.165Z,96970.72
2023-01-31T09:28:03.174Z,96961.91
2023-01-31T09:29:07.685Z,96960.97
2023-01-31T09:30:10.985Z,96957.13
2023-01-31T09:31:17.537Z,96954.94
2023-01-31T09:32:21.360Z,96957.22
2023-01-31T09:33:26.257Z,96950.06
2023-01-31T09:34:30.901Z,96950.28
2023-01-31T09:35:35.517Z,96954.25
2023-01-31T09:36:40.058Z,96945.03
2023-01-31T09:37:41.971Z,96950.63
2023-01-31T09:38:47.413Z,96947.94
2023-01-31T09:39:49.408Z,96949.50
2023-01-31T09:40:57.455Z,96950.59
2023-01-31T09:42:18.439Z,96949.31
2023-01-31T09:43:25.062Z,96949.50
2023-01-31T09:44:32.290Z,96962.50
2023-01-31T09:45:39.822Z,96951.53
2023-01-31T09:46:48.535Z,96954.41
2023-01-31T09:47:57.416Z,96960.47
2023-01-31T09:49:06.064Z,96962.72
2023-01-31T09:50:21.037Z,96962.72
2023-01-31T09:51:28.569Z,96961.06
2023-01-31T09:52:33.434Z,96959.25
2023-01-31T09:53:41.384Z,96956.44
2023-01-31T09:54:46.096Z,96954.53
2023-01-31T09:55:56.965Z,96952.03
2023-01-31T09:57:15.887Z,96948.09
2023-01-31T09:58:31.249Z,96947.09
2023-01-31T09:59:46.057Z,96954.31
2023-01-31T10:00:57.395Z,96954.38
2023-01-31T10:02:11.870Z,96958.66
2023-01-31T10:03:39.378Z,96951.84
2023-01-31T10:05:00.658Z,96956.88
2023-01-31T10:06:15.347Z,96956.09
2023-01-31T10:07:30.601Z,96962.81
2023-01-31T10:08:46.790Z,96955.94
2023-01-31T10:09:59.027Z,96958.66
2023-01-31T10:11:08.633Z,96956.16
2023-01-31T10:12:17.521Z,96968.22
2023-01-31T10:13:29.723Z,96977.59
2023-01-31T10:14:39.834Z,96976.81
2023-01-31T10:15:47.153Z,96975.84
2023-01-31T10:17:03.163Z,96974.88
2023-01-31T10:18:13.932Z,96971.34
2023-01-31T10:19:26.597Z,96968.63
2023-01-31T10:20:38.535Z,96970.56
2023-01-31T10:21:44.092Z,96961.09
2023-01-31T10:22:59.493Z,96959.28
2023-01-31T10:24:13.209Z,96944.50
2023-01-31T10:25:28.037Z,96950.41
2023-01-31T10:26:32.503Z,96943.72
2023-01-31T10:27:46.711Z,96953.81
2023-01-31T10:28:54.606Z,96953.16
2023-01-31T10:29:59.997Z,96947.06
2023-01-31T10:31:10.633Z,96947.34
2023-01-31T10:32:22.166Z,96947.38
2023-01-31T10:33:34.273Z,96945.41
2023-01-31T10:34:44.151Z,96948.88
2023-01-31T10:35:50.798Z,96942.09
2023-01-31T10:37:00.334Z,96946.31
2023-01-31T10:38:16.946Z,96938.63
2023-01-31T10:39:24.710Z,96937.03
2023-01-31T10:40:35.487Z,96940.59
2023-01-31T10:41:47.979Z,96937.03
2023-01-31T10:42:56.837Z,96928.66
2023-01-31T10:44:06.510Z,96934.69
2023-01-31T10:45:20.202Z,96918.16
2023-01-31T10:46:22.367Z,96924.38
2023-01-31T10:47:33.619Z,96926.91
2023-01-31T10:48:38.229Z,96923.44
2023-01-31T10:49:43.365Z,96923.53
2023-01-31T10:51:08.795Z,96923.47
2023-01-31T10:52:35.627Z,96918.50
2023-01-31T10:53:55.498Z,96928.78
2023-01-31T10:55:11.480Z,96932.22
2023-01-31T10:56:23.804Z,96927.00
2023-01-31T10:57:29.198Z,96931.28
2023-01-31T10:58:34.167Z,96926.22
2023-01-31T10:59:42.493Z,96934.78
2023-01-31T11:00:47.387Z,96931.31
2023-01-31T11:01:52.321Z,96925.31
2023-01-31T11:02:57.082Z,96924.38
2023-01-31T11:04:02.033Z,96919.22
2023-01-31T11:05:06.864Z,96921.75
2023-01-31T11:06:15.417Z,96921.78
2023-01-31T11:07:20.809Z,96920.03
2023-01-31T11:08:32.616Z,96911.34
2023-01-31T11:09:44.260Z,96914.81
2023-01-31T11:10:51.506Z,96911.16
2023-01-31T11:11:58.695Z,96898.59
2023-01-31T11:13:07.453Z,96906.22
2023-01-31T11:14:21.584Z,96902.56
2023-01-31T11:15:26.752Z,96905.31
2023-01-31T11:16:34.369Z,96903.72
2023-01-31T11:17:37.854Z,96901.03
2023-01-31T11:18:49.587Z,96899.69
2023-01-31T11:19:58.770Z,96893.56
2023-01-31T11:21:05.181Z,96896.81
2023-01-31T11:22:10.709Z,96889.88
2023-01-31T11:23:18.319Z,96887.59
2023-01-31T11:24:22.228Z,96873.88
2023-01-31T11:25:32.175Z,96883.28
2023-01-31T11:26:40.158Z,96874.66
2023-01-31T11:27:46.701Z,96876.50
2023-01-31T11:28:55.390Z,96860.50
2023-01-31T11:30:01.300Z,96862.16
2023-01-31T11:31:09.999Z,96879.34
2023-01-31T11:32:20.494Z,96870.69
2023-01-31T11:33:41.912Z,96881.44
2023-01-31T11:34:58.560Z,96876.25
2023-01-31T11:36:11.051Z,96885.56
2023-01-31T11:37:21.735Z,96890.72
2023-01-31T11:38:26.399Z,96885.72
2023-01-31T11:39:34.291Z,96887.63
2023-01-31T11:40:42.826Z,96887.72
2023-01-31T11:41:44.830Z,96879.97
2023-01-31T11:42:55.385Z,96880.72
2023-01-31T11:44:11.703Z,96871.13
2023-01-31T11:45:21.598Z,96866.81
2023-01-31T11:46:23.675Z,96861.53
2023-01-31T11:47:35.511Z,96864.25
2023-01-31T11:48:44.344Z,96855.31
2023-01-31T11:49:52.405Z,96868.91
2023-01-31T11:50:58.842Z,96865.47
2023-01-31T11:52:12.113Z,96864.44
2023-01-31T11:53:21.790Z,96853.22
2023-01-31T11:54:30.005Z,96853.84
2023-01-31T11:55:42.320Z,96846.13
2023-01-31T11:56:46.280Z,96855.47
2023-01-31T11:57:59.273Z,96845.06
2023-01-31T11:59:04.352Z,96843.41
2023-01-31T12:00:23.043Z,96843.44
2023-01-31T12:01:29.629Z,96846.03
2023-01-31T12:02:39.274Z,96836.59
2023-01-31T12:04:01.436Z,96836.69
2023-01-31T12:05:17.013Z,96841.94
2023-01-31T12:06:30.900Z,96840.13
2023-01-31T12:07:45.799Z,96834.78
2023-01-31T12:08:57.736Z,96828.22
2023-01-31T12:10:02.363Z,96827.47
2023-01-31T12:11:30.414Z,96825.63
2023-01-31T12:12:37.836Z,96831.63
2023-01-31T12:13:47.594Z,96817.84
2023-01-31T12:14:52.331Z,96814.56
2023-01-31T12:16:00.312Z,96798.06
2023-01-31T12:17:02.693Z,96798.13
2023-01-31T12:18:13.846Z,96792.03
2023-01-31T12:19:31.085Z,96796.66
2023-01-31T12:20:43.531Z,96785.31
2023-01-31T12:21:57.114Z,96792.19
2023-01-31T12:23:15.562Z,96793.94
2023-01-31T12:24:36.815Z,96792.81
2023-01-31T12:25:54.722Z,96778.22
2023-01-31T12:27:04.449Z,96774.66
2023-01-31T12:28:21.456Z,96777.91
2023-01-31T12:29:58.566Z,96780.38
2023-01-31T12:31:22.997Z,96776.09
2023-01-31T12:32:42.566Z,96777.81
2023-01-31T12:34:05.497Z,96777.78
2023-01-31T12:35:37.265Z,96782.94
2023-01-31T12:36:58.941Z,96796.69
2023-01-31T12:38:12.269Z,96794.97
2023-01-31T12:39:44.849Z,96793.16
2023-01-31T12:40:56.744Z,96791.41
2023-01-31T12:42:25.116Z,96795.84
2023-01-31T12:43:53.960Z,96787.19
2023-01-31T12:45:10.619Z,96781.09
2023-01-31T12:46:21.184Z,96782.69
2023-01-31T12:47:49.228Z,96771.00
2023-01-31T12:49:24.439Z,96776.81
2023-01-31T12:50:35.591Z,96767.44
2023-01-31T12:51:45.802Z,96761.66
2023-01-31T12:53:01.754Z,96759.75
2023-01-31T12:54:20.026Z,96756.44
2023-01-31T12:55:33.471Z,96740.06
2023-01-31T12:56:55.879Z,96734.50
2023-01-31T12:58:20.650Z,96732.81
2023-01-31T12:59:48.309Z,96729.25
2023-01-31T13:01:00.580Z,96720.53
2023-01-31T13:02:23.157Z,96715.59
2023-01-31T13:03:48.375Z,96710.59
2023-01-31T13:04:54.505Z,96712.34
2023-01-31T13:06:03.468Z,96709.09
2023-01-31T13:07:15.246Z,96702.09
2023-01-31T13:08:22.895Z,96703.69
2023-01-31T13:09:31.709Z,96715.06
2023-01-31T13:10:41.894Z,96714.22
2023-01-31T13:11:52.876Z,96713.53
2023-01-31T13:12:56.390Z,96710.38
2023-01-31T13:14:06.585Z,96708.53